createdAt,value
2023-04-26T00:03:28.322Z,4.1
2023-04-26T00:07:31.700Z,4.1
2023-04-26T00:13:36.455Z,4.1
2023-04-26T00:17:39.152Z,4.1
2023-04-26T00:19:41.150Z,4.1
2023-04-26T00:23:44.951Z,4.1
2023-04-26T00:27:48.195Z,4.1
2023-04-26T00:29:50.260Z,4.1
2023-04-26T00:33:53.209Z,4.1
2023-04-26T00:39:57.201Z,4.1
2023-04-26T00:46:02.094Z,4.1
2023-04-26T00:50:05.096Z,4.1
2023-04-26T00:56:09.880Z,4.1
2023-04-26T01:00:12.683Z,4.1
2023-04-26T01:02:14.053Z,4.1
2023-04-26T01:06:17.906Z,4.1
2023-04-26T01:10:21.267Z,4.1
2023-04-26T01:12:22.931Z,4.1
2023-04-26T01:16:25.963Z,4.09
2023-04-26T01:17:09.881Z,4.09
2023-04-26T01:21:12.926Z,4.09
2023-04-26T01:23:14.491Z,4.09
2023-04-26T01:27:25.993Z,4.09
2023-04-26T01:33:21.790Z,4.09
2023-04-26T01:39:26.670Z,4.09
2023-04-26T01:43:29.285Z,4.09
2023-04-26T01:49:34.159Z,4.09
2023-04-26T01:53:37.108Z,4.09
2023-04-26T01:57:40.378Z,4.08
2023-04-26T01:59:41.930Z,4.09
2023-04-26T02:05:46.467Z,4.09
2023-04-26T02:11:50.651Z,4.08
2023-04-26T02:15:53.785Z,4.08
2023-04-26T02:21:58.810Z,4.08
2023-04-26T02:26:01.638Z,4.08
2023-04-26T02:28:03.473Z,4.08
2023-04-26T02:32:07.187Z,4.08
2023-04-26T02:36:10.333Z,4.08
2023-04-26T02:38:11.715Z,4.08
2023-04-26T02:42:14.937Z,4.08
2023-04-26T02:48:19.530Z,4.08
2023-04-26T02:54:24.689Z,4.08
2023-04-26T02:58:27.801Z,4.08
2023-04-26T03:04:33.077Z,4.08
2023-04-26T03:08:35.494Z,4.08
2023-04-26T03:10:36.957Z,4.08
2023-04-26T03:14:39.729Z,4.08
2023-04-26T03:18:42.297Z,4.08
2023-04-26T03:20:43.415Z,4.07
2023-04-26T03:24:46.469Z,4.08
2023-04-26T03:30:51.875Z,4.07
2023-04-26T03:36:57.883Z,4.07
2023-04-26T03:40:59.751Z,4.07
2023-04-26T03:47:04.633Z,4.07
2023-04-26T03:51:08.168Z,4.06
2023-04-26T03:53:09.930Z,4.07
2023-04-26T03:57:13.923Z,4.07
2023-04-26T04:01:16.668Z,4.07
2023-04-26T04:03:18.113Z,4.06
2023-04-26T04:07:20.216Z,4.06
2023-04-26T04:13:24.887Z,4.07
2023-04-26T04:19:29.925Z,4.06
2023-04-26T04:23:32.482Z,4.06
2023-04-26T04:29:36.815Z,4.06
2023-04-26T04:33:39.970Z,4.06
2023-04-26T04:35:41.280Z,4.06
2023-04-26T04:39:44.113Z,4.06
2023-04-26T04:43:47.610Z,4.06
2023-04-26T04:45:49.407Z,4.06
2023-04-26T04:49:52.954Z,4.06
2023-04-26T04:53:56.118Z,4.06
2023-04-26T04:55:58.054Z,4.06
2023-04-26T05:00:01.041Z,4.06
2023-04-26T05:02:02.378Z,4.06
2023-04-26T05:06:05.915Z,4.06
2023-04-26T05:12:10.837Z,4.06
2023-04-26T05:16:13.758Z,4.06
2023-04-26T05:18:14.924Z,4.06
2023-04-26T05:22:18.256Z,4.06
2023-04-26T05:26:21.396Z,4.06
2023-04-26T05:28:22.461Z,4.06
2023-04-26T05:32:26.080Z,4.06
2023-04-26T05:36:30.019Z,4.06
2023-04-26T05:38:30.733Z,4.06
2023-04-26T05:42:33.722Z,4.06
2023-04-26T05:44:35.137Z,4.06
2023-04-26T05:46:36.225Z,4.06
2023-04-26T05:48:38.144Z,4.07
2023-04-26T05:54:42.384Z,4.08
2023-04-26T06:00:46.688Z,4.08
2023-04-26T06:04:50.483Z,4.08
2023-04-26T06:10:54.463Z,4.09
2023-04-26T06:14:57.219Z,4.1
2023-04-26T06:19:00.567Z,4.11
2023-04-26T06:21:02.489Z,4.11
2023-04-26T06:25:05.313Z,4.12
2023-04-26T06:27:06.563Z,4.12
2023-04-26T06:29:08.281Z,4.13
2023-04-26T06:31:10.077Z,4.13
2023-04-26T06:37:14.298Z,4.14
2023-04-26T06:43:18.401Z,4.16
2023-04-26T06:47:21.295Z,4.16
2023-04-26T06:53:25.850Z,4.17
2023-04-26T06:57:28.101Z,4.17
2023-04-26T06:59:29.216Z,4.17
2023-04-26T07:03:32.416Z,4.18
2023-04-26T07:07:34.619Z,4.18
2023-04-26T07:09:35.800Z,4.19
2023-04-26T07:13:38.708Z,4.18
2023-04-26T07:19:42.817Z,4.19
2023-04-26T07:25:46.085Z,4.19
2023-04-26T07:29:49.384Z,4.19
2023-04-26T07:35:53.161Z,4.19
2023-04-26T07:39:55.826Z,4.19
2023-04-26T07:41:57.451Z,4.19
2023-04-26T07:46:00.176Z,4.2
2023-04-26T07:50:03.981Z,4.2
2023-04-26T07:52:05.415Z,4.2
2023-04-26T07:56:08.113Z,4.2
2023-04-26T08:00:09.903Z,4.2
2023-04-26T08:02:11.356Z,4.2
2023-04-26T08:02:55.280Z,4.2
2023-04-26T08:04:56.618Z,4.2
2023-04-26T08:06:57.613Z,4.2
2023-04-26T08:13:01.340Z,4.2
2023-04-26T08:15:02.268Z,4.2
2023-04-26T08:19:05.435Z,4.2
2023-04-26T08:23:07.789Z,4.21
2023-04-26T08:29:11.450Z,4.19
2023-04-26T08:33:13.899Z,4.19
2023-04-26T08:35:14.935Z,4.19
2023-04-26T08:39:27.099Z,4.19
2023-04-26T08:43:20.836Z,4.18
2023-04-26T08:45:22.312Z,4.19
2023-04-26T08:49:25.403Z,4.18
2023-04-26T08:55:29.957Z,4.18
2023-04-26T09:01:34.810Z,4.18
2023-04-26T09:05:37.283Z,4.18
2023-04-26T09:11:40.620Z,4.18
2023-04-26T09:15:44.244Z,4.18
2023-04-26T09:17:45.373Z,4.18
2023-04-26T09:21:47.924Z,4.18
2023-04-26T09:25:50.687Z,4.18
2023-04-26T09:27:51.990Z,4.18
2023-04-26T09:31:54.845Z,4.18
2023-04-26T09:38:02.280Z,4.17
2023-04-26T09:44:04.048Z,4.18
2023-04-26T09:48:06.069Z,4.17
2023-04-26T09:54:09.721Z,4.17
2023-04-26T09:58:11.734Z,4.17
2023-04-26T10:00:12.796Z,4.17
2023-04-26T10:04:15.493Z,4.17
2023-04-26T10:08:18.107Z,4.17
2023-04-26T10:10:19.554Z,4.17
2023-04-26T10:14:21.705Z,4.17
2023-04-26T10:20:25.205Z,4.17
2023-04-26T10:24:28.110Z,4.17
2023-04-26T10:26:29.910Z,4.17
2023-04-26T10:30:32.848Z,4.17
2023-04-26T10:36:36.772Z,4.17
2023-04-26T10:42:41.816Z,4.16
2023-04-26T10:46:44.752Z,4.16
2023-04-26T10:52:57.950Z,4.16
2023-04-26T10:56:51.741Z,4.16
2023-04-26T10:58:52.835Z,4.16
2023-04-26T11:02:55.079Z,4.16
2023-04-26T11:06:57.251Z,4.16
2023-04-26T11:08:58.454Z,4.16
2023-04-26T11:13:01.559Z,4.16
2023-04-26T11:19:05.471Z,4.16
2023-04-26T11:25:09.374Z,4.16
2023-04-26T11:29:12.063Z,4.16
2023-04-26T11:35:15.865Z,4.16
2023-04-26T11:39:18.443Z,4.16
2023-04-26T11:41:19.461Z,4.16
2023-04-26T11:45:22.833Z,4.15
2023-04-26T11:49:25.253Z,4.16
2023-04-26T11:51:26.964Z,4.16
2023-04-26T11:55:28.978Z,4.15
2023-04-26T11:59:31.738Z,4.16
2023-04-26T12:01:32.950Z,4.16
2023-04-26T12:05:36.485Z,4.15
2023-04-26T12:07:37.326Z,4.15
2023-04-26T12:09:38.874Z,4.15
2023-04-26T12:11:39.907Z,4.15
2023-04-26T12:17:43.797Z,4.15
2023-04-26T12:19:45.304Z,4.15
2023-04-26T12:23:48.124Z,4.15
2023-04-26T12:27:50.928Z,4.15
2023-04-26T12:33:54.787Z,4.14
2023-04-26T12:38:06.991Z,4.15
2023-04-26T12:39:59.025Z,4.15
2023-04-26T12:44:01.170Z,4.14
2023-04-26T12:48:04.231Z,4.14
2023-04-26T12:50:05.390Z,4.14
2023-04-26T12:54:08.150Z,4.14
2023-04-26T13:00:12.015Z,4.14
2023-04-26T13:06:15.949Z,4.14
2023-04-26T13:10:18.967Z,4.14
2023-04-26T13:16:23.439Z,4.14
2023-04-26T13:20:26.264Z,4.14
2023-04-26T13:22:28.316Z,4.14
2023-04-26T13:26:29.935Z,4.14
2023-04-26T13:30:32.930Z,4.14
2023-04-26T13:32:34.606Z,4.14
2023-04-26T13:36:37.034Z,4.14
2023-04-26T13:42:40.521Z,4.14
2023-04-26T13:44:49.670Z,4.13
2023-04-26T13:46:42.859Z,4.14
2023-04-26T13:48:44.157Z,4.13
2023-04-26T13:52:46.369Z,4.14
2023-04-26T13:58:51.101Z,4.13
2023-04-26T14:02:53.754Z,4.13
2023-04-26T14:04:55.855Z,4.14
2023-04-26T14:08:58.454Z,4.13
2023-04-26T14:13:01.631Z,4.13
2023-04-26T14:15:03.449Z,4.13
2023-04-26T14:19:06.098Z,4.13
2023-04-26T14:25:10.508Z,4.13
2023-04-26T14:29:13.121Z,4.12
2023-04-26T14:31:14.359Z,4.13
2023-04-26T14:33:15.764Z,4.13
2023-04-26T14:35:16.580Z,4.12
2023-04-26T14:41:20.625Z,4.17
2023-04-26T14:43:21.956Z,4.17
2023-04-26T14:47:24.768Z,4.18
2023-04-26T14:48:08.485Z,4.18
2023-04-26T14:52:10.257Z,4.18
2023-04-26T14:56:12.713Z,4.19
2023-04-26T14:58:13.637Z,4.19
2023-04-26T15:02:16.462Z,4.19
2023-04-26T15:06:20.747Z,4.19
2023-04-26T15:08:21.095Z,4.19
2023-04-26T15:12:24.004Z,4.19
2023-04-26T15:18:28.332Z,4.2
2023-04-26T15:24:32.586Z,4.19
2023-04-26T15:28:34.810Z,4.19
2023-04-26T15:34:38.828Z,4.2
2023-04-26T15:38:41.407Z,4.2
2023-04-26T15:40:43.151Z,4.2
2023-04-26T15:44:45.982Z,4.2
2023-04-26T15:48:48.686Z,4.2
2023-04-26T15:50:50.111Z,4.21
2023-04-26T15:54:52.837Z,4.21
2023-04-26T15:58:55.028Z,4.2
2023-04-26T16:00:56.297Z,4.19
2023-04-26T16:04:59.685Z,4.19
2023-04-26T16:07:00.612Z,4.19
2023-04-26T16:09:02.239Z,4.19
2023-04-26T16:11:03.779Z,4.19
2023-04-26T16:17:07.088Z,4.19
2023-04-26T16:19:08.046Z,4.18
2023-04-26T16:23:10.887Z,4.18
2023-04-26T16:27:13.482Z,4.19
2023-04-26T16:33:17.783Z,4.18
2023-04-26T16:37:19.323Z,4.18
2023-04-26T16:39:21.138Z,4.18
2023-04-26T16:43:23.471Z,4.18
2023-04-26T16:47:26.075Z,4.18
2023-04-26T16:49:27.054Z,4.18
2023-04-26T16:53:29.668Z,4.17
2023-04-26T16:59:34.077Z,4.18
2023-04-26T17:05:38.573Z,4.17
2023-04-26T17:09:40.724Z,4.17
2023-04-26T17:15:44.488Z,4.17
2023-04-26T17:19:47.523Z,4.17
2023-04-26T17:21:48.580Z,4.17
2023-04-26T17:25:52.718Z,4.17
2023-04-26T17:29:54.897Z,4.17
2023-04-26T17:31:55.864Z,4.17
2023-04-26T17:35:59.260Z,4.17
2023-04-26T17:42:03.928Z,4.17
2023-04-26T17:48:09.291Z,4.17
2023-04-26T17:52:12.270Z,4.17
2023-04-26T17:58:16.473Z,4.17
2023-04-26T18:02:19.500Z,4.16
2023-04-26T18:04:21.235Z,4.17
2023-04-26T18:08:24.027Z,4.16
2023-04-26T18:12:26.728Z,4.16
2023-04-26T18:14:27.826Z,4.17
2023-04-26T18:18:31.055Z,4.16
2023-04-26T18:22:33.997Z,4.16
2023-04-26T18:24:35.664Z,4.16
2023-04-26T18:28:38.769Z,4.16
2023-04-26T18:30:40.825Z,4.16
2023-04-26T18:32:42.241Z,4.16
2023-04-26T18:34:43.434Z,4.16
2023-04-26T18:40:47.777Z,4.16
2023-04-26T18:46:52.489Z,4.16
2023-04-26T18:50:55.405Z,4.16
2023-04-26T18:57:00.686Z,4.16
2023-04-26T19:01:01.991Z,4.16
2023-04-26T19:03:03.154Z,4.16
2023-04-26T19:07:05.934Z,4.16
2023-04-26T19:11:09.029Z,4.15
2023-04-26T19:13:10.764Z,4.15
2023-04-26T19:17:13.395Z,4.15
2023-04-26T19:23:17.512Z,4.15
2023-04-26T19:29:21.495Z,4.15
2023-04-26T19:33:24.646Z,4.15
2023-04-26T19:39:29.522Z,4.15
2023-04-26T19:43:32.719Z,4.15
2023-04-26T19:45:34.052Z,4.15
2023-04-26T19:49:37.752Z,4.14
2023-04-26T19:55:42.102Z,4.14
2023-04-26T20:01:45.319Z,4.14
2023-04-26T20:05:48.313Z,4.14
2023-04-26T20:11:52.370Z,4.14
2023-04-26T20:15:54.605Z,4.14
2023-04-26T20:17:55.698Z,4.14
2023-04-26T20:21:58.787Z,4.14
2023-04-26T20:26:01.966Z,4.14
2023-04-26T20:28:03.430Z,4.14
2023-04-26T20:32:06.314Z,4.14
2023-04-26T20:38:11.018Z,4.14
2023-04-26T20:44:16.574Z,4.14
2023-04-26T20:48:20.143Z,4.14
2023-04-26T20:54:24.669Z,4.14
2023-04-26T20:58:27.640Z,4.14
2023-04-26T21:00:29.525Z,4.13
2023-04-26T21:04:32.225Z,4.13
2023-04-26T21:08:36.732Z,4.14
2023-04-26T21:10:36.181Z,4.13
2023-04-26T21:14:39.230Z,4.13
2023-04-26T21:20:43.691Z,4.13
2023-04-26T21:26:48.063Z,4.13
2023-04-26T21:30:51.232Z,4.13
2023-04-26T21:33:36.462Z,4.13
2023-04-26T21:35:38.225Z,4.13
2023-04-26T21:37:40.228Z,4.13
2023-04-26T21:41:42.728Z,4.13
2023-04-26T21:45:45.788Z,4.13
2023-04-26T21:47:46.965Z,4.13
2023-04-26T21:51:50.541Z,4.12
2023-04-26T21:55:53.269Z,4.12
2023-04-26T21:57:54.729Z,4.12
2023-04-26T22:01:57.661Z,4.12
2023-04-26T22:03:58.853Z,4.12
2023-04-26T22:06:00.677Z,4.12
2023-04-26T22:08:02.675Z,4.12
2023-04-26T22:14:06.638Z,4.12
2023-04-26T22:20:10.617Z,4.12
2023-04-26T22:24:13.543Z,4.12
2023-04-26T22:30:25.199Z,4.12
2023-04-26T22:34:20.437Z,4.12
2023-04-26T22:36:22.370Z,4.12
2023-04-26T22:40:25.198Z,4.12
2023-04-26T22:44:28.363Z,4.12
2023-04-26T22:46:30.226Z,4.12
2023-04-26T22:50:33.369Z,4.12
2023-04-26T22:56:37.944Z,4.11
2023-04-26T23:02:42.056Z,4.11
2023-04-26T23:06:45.380Z,4.11
2023-04-26T23:12:49.883Z,4.11
2023-04-26T23:16:53.604Z,4.11
2023-04-26T23:18:54.730Z,4.11
2023-04-26T23:22:57.840Z,4.11
2023-04-26T23:27:01.529Z,4.11
2023-04-26T23:29:03.523Z,4.11
2023-04-26T23:33:06.580Z,4.11
2023-04-26T23:39:12.038Z,4.1
2023-04-26T23:45:16.136Z,4.1
2023-04-26T23:49:19.025Z,4.1
2023-04-26T23:55:22.851Z,4.1
2023-04-26T23:59:26.185Z,4.1
